Terminal Aerodrome Forecast
Issued by NWS

Home | Current Version | Previous Version | Text Only | Print | Product List | Glossary On
Versions: 1 2 3 4 5 6 7 8 9 10 11 12 13 14 15 16 17 18 19 20 21 22 23 24 25 26 27 28 29 30 31 32 33 34 35 36 37 38 39 40
000
FTUS41 KRNK 220540
TAFBCB
TAF
KBCB 220540Z 2206/2306 00000KT 5SM BR SCT003 BKN100
     FM220900 27003KT 6SM BR SCT035 BKN100 OVC250
      TEMPO 2210/2214 5SM -SHRA OVC035
     FM221400 29006KT P6SM BKN040
     FM221900 30008KT P6SM VCTS BKN050CB
     FM230100 VRB03KT 5SM BR SCT003 BKN100=

USA.gov is the U.S. government's official web portal to all federal, state and local government web resources and services.